createdAt,value
2024-05-09T00:03:34.791Z,8.70
2024-05-09T00:07:17.286Z,8.45
2024-05-09T00:10:59.338Z,8.68
2024-05-09T00:14:41.370Z,9.23
2024-05-09T00:18:23.600Z,8.98
2024-05-09T00:22:05.680Z,8.52
2024-05-09T00:25:47.687Z,8.30
2024-05-09T00:29:29.742Z,8.98
2024-05-09T00:33:12.064Z,9.32
2024-05-09T00:36:54.158Z,10.48
2024-05-09T00:40:40.473Z,9.75
2024-05-09T00:44:24.608Z,9.18
2024-05-09T00:48:09.487Z,9.90
2024-05-09T00:51:54.378Z,10.25
2024-05-09T00:55:37.601Z,10.18
2024-05-09T00:59:20.000Z,9.32
2024-05-09T01:03:02.219Z,9.98
2024-05-09T01:06:44.335Z,9.32
2024-05-09T01:10:33.577Z,10.02
2024-05-09T01:14:17.251Z,9.38
2024-05-09T01:18:03.071Z,9.93
2024-05-09T01:21:45.070Z,9.60
2024-05-09T01:25:27.019Z,10.02
2024-05-09T01:29:09.066Z,9.88
2024-05-09T01:32:51.364Z,9.27
2024-05-09T01:36:33.470Z,9.13
2024-05-09T01:40:18.745Z,8.90
2024-05-09T01:44:06.824Z,9.10
2024-05-09T01:47:48.919Z,8.85
2024-05-09T01:51:30.896Z,8.57
2024-05-09T01:55:12.877Z,7.88
2024-05-09T01:58:54.979Z,8.02
2024-05-09T02:02:36.997Z,8.32
2024-05-09T02:06:19.048Z,8.02
2024-05-09T02:10:00.992Z,8.02
2024-05-09T02:13:42.940Z,7.93
2024-05-09T02:17:25.100Z,8.25
2024-05-09T02:21:09.189Z,8.38
2024-05-09T02:24:51.258Z,8.82
2024-05-09T02:28:33.159Z,8.57
2024-05-09T02:32:15.251Z,8.85
2024-05-09T02:35:57.308Z,8.45
2024-05-09T02:39:39.320Z,8.30
2024-05-09T02:43:21.254Z,9.27
2024-05-09T02:47:03.227Z,8.50
2024-05-09T02:50:45.324Z,9.35
2024-05-09T02:54:27.357Z,8.65
2024-05-09T02:58:10.085Z,8.77
2024-05-09T03:01:52.404Z,8.98
2024-05-09T03:05:34.621Z,9.18
2024-05-09T03:09:17.059Z,10.10
2024-05-09T03:12:59.058Z,9.07
2024-05-09T03:16:41.038Z,9.63
2024-05-09T03:20:27.605Z,8.95
2024-05-09T03:24:14.756Z,9.40
2024-05-09T03:27:56.808Z,9.32
2024-05-09T03:31:39.388Z,10.55
2024-05-09T03:35:21.488Z,11.18
2024-05-09T03:39:03.475Z,10.98
2024-05-09T03:42:45.448Z,10.95
2024-05-09T03:46:27.358Z,11.48
2024-05-09T03:50:15.204Z,11.68
2024-05-09T03:54:00.989Z,11.57
2024-05-09T03:57:42.897Z,10.88
2024-05-09T04:01:25.661Z,11.35
2024-05-09T04:05:07.678Z,11.63
2024-05-09T04:08:49.705Z,11.50
2024-05-09T04:12:31.632Z,11.70
2024-05-09T04:16:13.595Z,12.90
2024-05-09T04:19:56.051Z,11.80
2024-05-09T04:23:38.795Z,11.63
2024-05-09T04:27:20.708Z,12.60
2024-05-09T04:31:02.665Z,13.93
2024-05-09T04:34:44.604Z,13.52
2024-05-09T04:38:26.636Z,12.68
2024-05-09T04:42:08.601Z,12.82
2024-05-09T04:45:50.906Z,13.45
2024-05-09T04:49:32.903Z,13.40
2024-05-09T04:53:18.282Z,14.07
2024-05-09T04:57:00.300Z,12.77
2024-05-09T05:00:42.385Z,13.15
2024-05-09T05:04:25.074Z,13.38
2024-05-09T05:08:15.299Z,13.80
2024-05-09T05:11:59.609Z,14.45
2024-05-09T05:15:41.617Z,14.93
2024-05-09T05:19:23.675Z,13.75
2024-05-09T05:23:08.639Z,15.40
2024-05-09T05:26:50.555Z,12.98
2024-05-09T05:30:34.780Z,14.00
2024-05-09T05:34:17.157Z,13.77
2024-05-09T05:37:59.101Z,13.38
2024-05-09T05:41:41.147Z,14.80
2024-05-09T05:45:23.274Z,14.10
2024-05-09T05:49:05.399Z,14.70
2024-05-09T05:52:47.500Z,14.35
2024-05-09T05:56:29.400Z,13.32
2024-05-09T06:00:18.082Z,14.20
2024-05-09T06:04:07.353Z,13.10
2024-05-09T06:07:49.325Z,12.45
2024-05-09T06:11:31.433Z,12.70
2024-05-09T06:15:13.812Z,14.05
2024-05-09T06:18:55.806Z,13.80
2024-05-09T06:22:37.905Z,13.00
2024-05-09T06:26:20.079Z,13.02
2024-05-09T06:30:02.067Z,12.88
2024-05-09T06:33:44.148Z,12.50
2024-05-09T06:37:26.195Z,12.63
2024-05-09T06:41:08.156Z,12.65
2024-05-09T06:44:50.192Z,13.25
2024-05-09T06:48:32.291Z,11.77
2024-05-09T06:52:14.381Z,12.38
2024-05-09T06:55:56.284Z,11.38
2024-05-09T06:59:38.311Z,12.93
2024-05-09T07:03:20.438Z,12.38
2024-05-09T07:07:04.423Z,12.90
2024-05-09T07:10:46.763Z,11.55
2024-05-09T07:14:29.248Z,11.80
2024-05-09T07:18:17.571Z,11.25
2024-05-09T07:22:00.623Z,11.20
2024-05-09T07:25:42.684Z,10.00
2024-05-09T07:29:24.736Z,10.82
2024-05-09T07:33:06.757Z,10.02
2024-05-09T07:36:48.842Z,10.52
2024-05-09T07:40:35.926Z,9.88
2024-05-09T07:44:19.058Z,10.18
2024-05-09T07:53:17.458Z,9.50
2024-05-09T07:55:47.965Z,9.70
2024-05-09T07:59:30.854Z,8.48
2024-05-09T08:03:13.951Z,9.35
2024-05-09T08:06:55.955Z,8.85
2024-05-09T08:10:37.959Z,8.95
2024-05-09T08:14:19.924Z,8.45
2024-05-09T08:18:02.031Z,8.10
2024-05-09T08:21:44.208Z,8.52
2024-05-09T08:25:26.237Z,7.60
2024-05-09T08:29:08.187Z,7.05
2024-05-09T08:32:50.155Z,6.43
2024-05-09T08:36:32.523Z,7.18
2024-05-09T08:40:19.917Z,5.72
2024-05-09T08:44:10.063Z,7.38
2024-05-09T08:47:53.573Z,8.13
2024-05-09T08:51:35.574Z,7.05
2024-05-09T08:55:17.603Z,7.60
2024-05-09T08:59:01.679Z,7.60
2024-05-09T09:02:45.163Z,7.45
2024-05-09T09:06:28.341Z,7.70
2024-05-09T09:10:12.899Z,7.78
2024-05-09T09:13:57.125Z,8.10
2024-05-09T09:17:39.172Z,6.65
2024-05-09T09:21:22.043Z,8.45
2024-05-09T09:25:04.165Z,8.00
2024-05-09T09:28:46.998Z,7.18
2024-05-09T09:32:30.119Z,7.03
2024-05-09T09:36:14.430Z,7.53
2024-05-09T09:39:58.821Z,7.03
2024-05-09T09:43:42.898Z,6.45
2024-05-09T09:47:27.234Z,6.93
2024-05-09T09:51:09.584Z,6.55
2024-05-09T09:54:53.708Z,6.22
2024-05-09T09:58:38.605Z,5.43
2024-05-09T10:02:20.736Z,6.00
2024-05-09T10:06:04.151Z,5.50
2024-05-09T10:09:46.203Z,5.30
2024-05-09T10:13:37.286Z,5.38
2024-05-09T10:17:19.904Z,5.97
2024-05-09T10:21:01.876Z,5.70
2024-05-09T10:24:50.234Z,5.43
2024-05-09T10:28:33.593Z,4.57
2024-05-09T10:32:16.614Z,4.80
2024-05-09T10:36:03.641Z,4.72
2024-05-09T10:39:46.156Z,4.07
2024-05-09T10:43:28.692Z,4.10
2024-05-09T10:47:10.959Z,4.57
2024-05-09T10:50:53.089Z,3.60
2024-05-09T10:54:41.226Z,5.15
2024-05-09T10:58:23.770Z,4.47
2024-05-09T11:02:09.972Z,3.92
2024-05-09T11:05:53.279Z,4.35
2024-05-09T11:09:37.392Z,4.07
2024-05-09T11:13:36.416Z,3.67
2024-05-09T11:17:18.468Z,4.15
2024-05-09T11:21:00.445Z,3.92
2024-05-09T11:24:42.393Z,3.00
2024-05-09T11:28:26.905Z,3.30
2024-05-09T11:32:11.569Z,3.20
2024-05-09T11:35:53.667Z,3.38
2024-05-09T11:39:35.856Z,3.97
2024-05-09T11:43:17.972Z,3.58
2024-05-09T11:46:59.966Z,4.65
2024-05-09T11:50:42.046Z,3.53
2024-05-09T11:54:24.038Z,3.58
2024-05-09T11:58:06.055Z,3.00
2024-05-09T12:01:48.071Z,3.00
2024-05-09T12:05:30.186Z,3.03
2024-05-09T12:09:12.198Z,2.85
2024-05-09T12:12:54.268Z,2.70
2024-05-09T12:16:36.330Z,2.15
2024-05-09T12:20:25.811Z,2.97
2024-05-09T12:24:18.278Z,2.35
2024-05-09T12:28:00.887Z,2.85
2024-05-09T12:31:43.163Z,2.13
2024-05-09T12:35:25.862Z,3.42
2024-05-09T12:39:09.565Z,3.53
2024-05-09T12:42:51.514Z,3.35
2024-05-09T12:46:33.488Z,2.65
2024-05-09T12:50:22.398Z,2.70
2024-05-09T12:54:11.463Z,3.47
2024-05-09T12:57:53.542Z,2.35
2024-05-09T13:01:35.527Z,2.00
2024-05-09T13:05:17.779Z,2.92
2024-05-09T13:08:59.902Z,2.30
2024-05-09T13:12:41.834Z,2.60
2024-05-09T13:16:24.048Z,2.20
2024-05-09T13:20:09.302Z,2.20
2024-05-09T13:23:54.274Z,1.58
2024-05-09T13:27:36.894Z,2.05
2024-05-09T13:31:19.871Z,2.17
2024-05-09T13:35:01.855Z,2.80
2024-05-09T13:38:43.838Z,2.13
2024-05-09T13:42:25.772Z,2.92
2024-05-09T13:46:07.822Z,2.75
2024-05-09T13:49:50.185Z,2.45
2024-05-09T13:53:32.129Z,1.80
2024-05-09T13:57:14.259Z,2.17
2024-05-09T14:00:56.303Z,2.38
2024-05-09T14:04:38.657Z,2.50
2024-05-09T14:08:22.540Z,2.97
2024-05-09T14:12:05.244Z,2.90
2024-05-09T14:15:47.417Z,2.53
2024-05-09T14:19:29.633Z,2.63
2024-05-09T14:23:11.799Z,2.35
2024-05-09T14:26:53.804Z,3.20
2024-05-09T14:30:37.882Z,3.50
2024-05-09T14:34:21.004Z,2.03
2024-05-09T14:38:03.865Z,2.05
2024-05-09T14:41:46.758Z,3.08
2024-05-09T14:45:28.730Z,2.70
2024-05-09T14:49:12.429Z,2.30
2024-05-09T14:52:54.705Z,2.38
2024-05-09T14:56:36.668Z,2.15
2024-05-09T15:00:26.127Z,2.88
2024-05-09T15:04:11.559Z,2.83
2024-05-09T15:07:53.695Z,2.45
2024-05-09T15:11:35.725Z,2.42
2024-05-09T15:15:18.208Z,2.95
2024-05-09T15:19:00.360Z,2.55
2024-05-09T15:22:42.318Z,2.30
2024-05-09T15:26:27.361Z,2.30
2024-05-09T15:30:10.832Z,2.67
2024-05-09T15:33:53.248Z,3.22
2024-05-09T15:37:35.226Z,2.92
2024-05-09T15:41:17.242Z,3.13
2024-05-09T15:45:00.936Z,3.28
2024-05-09T15:48:44.836Z,2.47
2024-05-09T15:52:26.921Z,2.17
2024-05-09T15:56:10.955Z,2.97
2024-05-09T15:59:52.874Z,2.83
2024-05-09T16:03:34.910Z,2.20
2024-05-09T16:07:16.989Z,2.50
2024-05-09T16:10:59.304Z,2.20
2024-05-09T16:14:41.277Z,2.60
2024-05-09T16:18:23.447Z,2.20
2024-05-09T16:22:05.490Z,2.20
2024-05-09T16:25:48.400Z,2.38
2024-05-09T16:29:30.613Z,2.15
2024-05-09T16:33:12.738Z,2.25
2024-05-09T16:36:55.005Z,2.40
2024-05-09T16:40:40.182Z,2.28
2024-05-09T16:44:23.421Z,1.95
2024-05-09T16:48:06.630Z,2.10
2024-05-09T16:51:48.798Z,2.40
2024-05-09T16:55:30.924Z,2.50
2024-05-09T16:59:12.979Z,2.50
2024-05-09T17:02:55.073Z,2.38
2024-05-09T17:06:37.115Z,2.22
2024-05-09T17:10:26.778Z,2.30
2024-05-09T17:14:14.277Z,2.40
2024-05-09T17:17:56.802Z,2.85
2024-05-09T17:21:38.831Z,2.78
2024-05-09T17:25:21.310Z,2.60
2024-05-09T17:29:03.248Z,2.65
2024-05-09T17:32:45.227Z,2.42
2024-05-09T17:36:27.193Z,2.15
2024-05-09T17:40:16.700Z,2.78
2024-05-09T17:43:59.086Z,3.05
2024-05-09T17:47:41.267Z,2.53
2024-05-09T17:51:23.161Z,2.42
2024-05-09T17:55:06.537Z,2.33
2024-05-09T17:58:48.989Z,2.17
2024-05-09T18:02:31.590Z,2.55
2024-05-09T18:06:13.580Z,2.10
2024-05-09T18:09:55.510Z,2.85
2024-05-09T18:13:37.412Z,2.42
2024-05-09T18:17:22.331Z,2.95
2024-05-09T18:21:05.600Z,2.30
2024-05-09T18:24:47.622Z,2.60
2024-05-09T18:28:29.698Z,1.73
2024-05-09T18:32:11.761Z,2.50
2024-05-09T18:35:53.707Z,2.50
2024-05-09T18:39:35.668Z,1.90
2024-05-09T18:43:18.200Z,2.28
2024-05-09T18:47:01.035Z,2.25
2024-05-09T18:50:42.961Z,2.13
2024-05-09T18:54:24.889Z,2.20
2024-05-09T18:58:07.298Z,2.10
2024-05-09T19:01:49.607Z,2.28
2024-05-09T19:05:31.888Z,2.15
2024-05-09T19:09:14.088Z,2.45
2024-05-09T19:12:56.057Z,2.80
2024-05-09T19:16:38.227Z,2.53
2024-05-09T19:20:25.548Z,2.17
2024-05-09T19:24:16.679Z,2.75
2024-05-09T19:27:58.737Z,4.70
2024-05-09T19:31:40.672Z,4.22
2024-05-09T19:35:22.586Z,3.92
2024-05-09T19:39:04.512Z,4.45
2024-05-09T19:42:46.630Z,4.18
2024-05-09T19:46:28.682Z,3.83
2024-05-09T19:50:13.899Z,3.83
2024-05-09T19:53:58.340Z,4.32
2024-05-09T19:57:40.302Z,4.00
2024-05-09T20:01:22.373Z,4.13
2024-05-09T20:05:05.066Z,4.00
2024-05-09T20:08:47.482Z,4.78
2024-05-09T20:12:29.395Z,3.97
2024-05-09T20:16:11.899Z,3.72
2024-05-09T20:19:54.659Z,4.18
2024-05-09T20:23:36.928Z,4.97
2024-05-09T20:27:18.835Z,4.18
2024-05-09T20:31:00.781Z,4.20
2024-05-09T20:34:42.678Z,5.30
2024-05-09T20:38:25.081Z,5.25
2024-05-09T20:42:06.988Z,5.68
2024-05-09T20:45:49.084Z,4.82
2024-05-09T20:49:31.116Z,4.40
2024-05-09T20:53:14.295Z,5.28
2024-05-09T20:56:56.951Z,13.55
2024-05-09T21:00:42.785Z,6.85
2024-05-09T21:04:27.173Z,6.88
2024-05-09T21:08:09.376Z,8.13
2024-05-09T21:11:52.032Z,8.50
2024-05-09T21:15:34.249Z,8.65
2024-05-09T21:19:16.637Z,8.93
2024-05-09T21:22:58.815Z,8.57
2024-05-09T21:26:40.927Z,8.93
2024-05-09T21:30:32.381Z,9.65
2024-05-09T21:34:22.525Z,9.38
2024-05-09T21:38:04.813Z,10.48
2024-05-09T21:41:46.836Z,9.65
2024-05-09T21:45:28.854Z,9.27
2024-05-09T21:49:11.151Z,10.18
2024-05-09T21:52:53.090Z,10.25
2024-05-09T21:56:34.956Z,10.73
2024-05-09T22:00:28.522Z,9.98
2024-05-09T22:04:17.366Z,10.38
2024-05-09T22:07:59.438Z,10.50
2024-05-09T22:11:41.532Z,10.02
2024-05-09T22:15:23.536Z,11.18
2024-05-09T22:19:05.898Z,11.02
2024-05-09T22:22:47.836Z,11.18
2024-05-09T22:26:29.725Z,11.60
2024-05-09T22:30:17.680Z,10.82
2024-05-09T22:34:05.732Z,12.13
2024-05-09T22:37:47.812Z,11.48
2024-05-09T22:41:29.882Z,11.32
2024-05-09T22:45:11.858Z,12.10
2024-05-09T22:48:53.863Z,11.65
2024-05-09T22:52:37.366Z,11.90
2024-05-09T22:56:29.170Z,12.25
2024-05-09T23:00:15.725Z,11.25
2024-05-09T23:03:58.264Z,11.45
2024-05-09T23:07:40.343Z,11.48
2024-05-09T23:11:22.285Z,12.68
2024-05-09T23:15:04.747Z,12.10
2024-05-09T23:18:47.623Z,12.63
2024-05-09T23:22:30.688Z,12.38
2024-05-09T23:26:12.606Z,12.10
2024-05-09T23:29:54.528Z,13.60
2024-05-09T23:33:36.595Z,13.25
2024-05-09T23:37:18.844Z,13.52
2024-05-09T23:41:00.995Z,12.45
2024-05-09T23:44:43.700Z,14.20
2024-05-09T23:48:25.587Z,13.32
2024-05-09T23:52:07.717Z,12.20
2024-05-09T23:55:49.630Z,12.50
2024-05-09T23:59:31.862Z,12.57
